sensor_id;sensor_type;location;lat;lon;timestamp;P1;durP1;ratioP1;P2;durP2;ratioP2
46551;SDS011;32278;51.810;4.712;2023-08-08T00:02:15;7.78;;;2.42;;
46551;SDS011;32278;51.810;4.712;2023-08-08T00:04:41;9.73;;;2.50;;
46551;SDS011;32278;51.810;4.712;2023-08-08T00:07:07;9.50;;;2.40;;
46551;SDS011;32278;51.810;4.712;2023-08-08T00:09:33;14.52;;;3.10;;
46551;SDS011;32278;51.810;4.712;2023-08-08T00:11:59;7.10;;;2.78;;
46551;SDS011;32278;51.810;4.712;2023-08-08T00:14:25;10.13;;;2.60;;
46551;SDS011;32278;51.810;4.712;2023-08-08T00:16:51;15.77;;;3.08;;
46551;SDS011;32278;51.810;4.712;2023-08-08T00:19:17;12.15;;;2.88;;
46551;SDS011;32278;51.810;4.712;2023-08-08T00:21:43;7.95;;;2.88;;
46551;SDS011;32278;51.810;4.712;2023-08-08T00:24:09;7.70;;;3.03;;
46551;SDS011;32278;51.810;4.712;2023-08-08T00:26:35;9.48;;;2.40;;
46551;SDS011;32278;51.810;4.712;2023-08-08T00:29:01;10.48;;;3.05;;
46551;SDS011;32278;51.810;4.712;2023-08-08T00:31:27;8.80;;;2.50;;
46551;SDS011;32278;51.810;4.712;2023-08-08T00:33:53;9.73;;;2.70;;
46551;SDS011;32278;51.810;4.712;2023-08-08T00:36:19;5.97;;;2.67;;
46551;SDS011;32278;51.810;4.712;2023-08-08T00:38:45;7.53;;;2.80;;
46551;SDS011;32278;51.810;4.712;2023-08-08T00:41:11;12.00;;;3.17;;
46551;SDS011;32278;51.810;4.712;2023-08-08T00:43:37;10.48;;;3.47;;
46551;SDS011;32278;51.810;4.712;2023-08-08T00:46:03;9.32;;;2.83;;
46551;SDS011;32278;51.810;4.712;2023-08-08T00:48:31;7.80;;;2.92;;
46551;SDS011;32278;51.810;4.712;2023-08-08T00:50:57;8.68;;;3.10;;
46551;SDS011;32278;51.810;4.712;2023-08-08T00:53:24;16.23;;;3.28;;
46551;SDS011;32278;51.810;4.712;2023-08-08T00:55:53;12.50;;;3.92;;
46551;SDS011;32278;51.810;4.712;2023-08-08T00:58:19;8.18;;;3.17;;
46551;SDS011;32278;51.810;4.712;2023-08-08T01:00:45;14.68;;;3.85;;
46551;SDS011;32278;51.810;4.712;2023-08-08T01:03:12;18.00;;;4.60;;
46551;SDS011;32278;51.810;4.712;2023-08-08T01:05:43;16.17;;;4.28;;
46551;SDS011;32278;51.810;4.712;2023-08-08T01:08:11;15.40;;;3.80;;
46551;SDS011;32278;51.810;4.712;2023-08-08T01:10:39;14.48;;;4.38;;
46551;SDS011;32278;51.810;4.712;2023-08-08T01:13:07;11.85;;;3.67;;
46551;SDS011;32278;51.810;4.712;2023-08-08T01:15:34;12.98;;;4.45;;
46551;SDS011;32278;51.810;4.712;2023-08-08T01:18:07;17.95;;;4.60;;
46551;SDS011;32278;51.810;4.712;2023-08-08T01:20:33;12.30;;;4.22;;
46551;SDS011;32278;51.810;4.712;2023-08-08T01:25:32;9.05;;;3.53;;
46551;SDS011;32278;51.810;4.712;2023-08-08T01:27:58;19.52;;;4.60;;
46551;SDS011;32278;51.810;4.712;2023-08-08T01:30:24;15.23;;;3.50;;
46551;SDS011;32278;51.810;4.712;2023-08-08T01:32:50;11.23;;;3.88;;
46551;SDS011;32278;51.810;4.712;2023-08-08T01:35:16;10.88;;;4.63;;
46551;SDS011;32278;51.810;4.712;2023-08-08T01:37:52;13.73;;;4.43;;
46551;SDS011;32278;51.810;4.712;2023-08-08T01:40:21;12.57;;;4.22;;
46551;SDS011;32278;51.810;4.712;2023-08-08T01:42:48;14.68;;;4.93;;
46551;SDS011;32278;51.810;4.712;2023-08-08T01:45:16;14.38;;;4.38;;
46551;SDS011;32278;51.810;4.712;2023-08-08T01:47:43;22.17;;;4.70;;
46551;SDS011;32278;51.810;4.712;2023-08-08T01:50:14;13.65;;;4.50;;
46551;SDS011;32278;51.810;4.712;2023-08-08T01:52:40;15.15;;;5.07;;
46551;SDS011;32278;51.810;4.712;2023-08-08T01:55:06;15.77;;;5.10;;
46551;SDS011;32278;51.810;4.712;2023-08-08T01:57:33;18.10;;;4.72;;
46551;SDS011;32278;51.810;4.712;2023-08-08T01:59:59;12.32;;;4.60;;
46551;SDS011;32278;51.810;4.712;2023-08-08T02:02:25;14.63;;;4.40;;
46551;SDS011;32278;51.810;4.712;2023-08-08T02:04:50;23.50;;;5.28;;
46551;SDS011;32278;51.810;4.712;2023-08-08T02:07:16;18.80;;;5.57;;
46551;SDS011;32278;51.810;4.712;2023-08-08T02:09:42;22.80;;;5.97;;
46551;SDS011;32278;51.810;4.712;2023-08-08T02:12:11;18.45;;;4.85;;
46551;SDS011;32278;51.810;4.712;2023-08-08T02:14:37;21.80;;;5.82;;
46551;SDS011;32278;51.810;4.712;2023-08-08T02:17:03;16.13;;;5.57;;
46551;SDS011;32278;51.810;4.712;2023-08-08T02:19:29;13.82;;;5.53;;
46551;SDS011;32278;51.810;4.712;2023-08-08T02:21:55;18.55;;;4.63;;
46551;SDS011;32278;51.810;4.712;2023-08-08T02:24:21;17.73;;;5.13;;
46551;SDS011;32278;51.810;4.712;2023-08-08T02:26:47;17.42;;;5.38;;
46551;SDS011;32278;51.810;4.712;2023-08-08T02:29:13;21.83;;;6.47;;
46551;SDS011;32278;51.810;4.712;2023-08-08T02:31:39;20.60;;;5.15;;
46551;SDS011;32278;51.810;4.712;2023-08-08T02:34:05;17.55;;;4.85;;
46551;SDS011;32278;51.810;4.712;2023-08-08T02:36:31;19.95;;;5.10;;
46551;SDS011;32278;51.810;4.712;2023-08-08T02:38:58;20.77;;;5.15;;
46551;SDS011;32278;51.810;4.712;2023-08-08T02:41:24;12.43;;;5.50;;
46551;SDS011;32278;51.810;4.712;2023-08-08T02:43:50;22.98;;;5.55;;
46551;SDS011;32278;51.810;4.712;2023-08-08T02:46:16;18.20;;;5.40;;
46551;SDS011;32278;51.810;4.712;2023-08-08T02:48:42;12.75;;;4.78;;
46551;SDS011;32278;51.810;4.712;2023-08-08T02:51:08;16.98;;;5.43;;
46551;SDS011;32278;51.810;4.712;2023-08-08T02:53:34;16.80;;;5.78;;
46551;SDS011;32278;51.810;4.712;2023-08-08T02:56:00;14.02;;;4.75;;
46551;SDS011;32278;51.810;4.712;2023-08-08T02:58:26;30.58;;;6.50;;
46551;SDS011;32278;51.810;4.712;2023-08-08T03:00:52;15.63;;;5.40;;
46551;SDS011;32278;51.810;4.712;2023-08-08T03:03:18;14.55;;;5.10;;
46551;SDS011;32278;51.810;4.712;2023-08-08T03:05:44;17.58;;;5.05;;
46551;SDS011;32278;51.810;4.712;2023-08-08T03:08:11;18.05;;;5.90;;
46551;SDS011;32278;51.810;4.712;2023-08-08T03:10:37;14.55;;;4.80;;
46551;SDS011;32278;51.810;4.712;2023-08-08T03:13:03;19.58;;;4.78;;
46551;SDS011;32278;51.810;4.712;2023-08-08T03:15:29;17.23;;;5.32;;
46551;SDS011;32278;51.810;4.712;2023-08-08T03:17:55;18.60;;;5.78;;
46551;SDS011;32278;51.810;4.712;2023-08-08T03:20:21;18.15;;;5.15;;
46551;SDS011;32278;51.810;4.712;2023-08-08T03:22:48;21.63;;;6.20;;
46551;SDS011;32278;51.810;4.712;2023-08-08T03:25:14;14.77;;;5.80;;
46551;SDS011;32278;51.810;4.712;2023-08-08T03:27:40;16.55;;;5.45;;
46551;SDS011;32278;51.810;4.712;2023-08-08T03:30:06;12.32;;;5.53;;
46551;SDS011;32278;51.810;4.712;2023-08-08T03:32:32;20.42;;;6.15;;
46551;SDS011;32278;51.810;4.712;2023-08-08T03:34:58;15.88;;;6.15;;
46551;SDS011;32278;51.810;4.712;2023-08-08T03:37:24;17.48;;;5.72;;
46551;SDS011;32278;51.810;4.712;2023-08-08T03:39:50;26.73;;;6.72;;
46551;SDS011;32278;51.810;4.712;2023-08-08T03:42:16;17.92;;;6.20;;
46551;SDS011;32278;51.810;4.712;2023-08-08T03:44:42;12.13;;;5.60;;
46551;SDS011;32278;51.810;4.712;2023-08-08T03:47:10;17.85;;;5.88;;
46551;SDS011;32278;51.810;4.712;2023-08-08T03:49:36;18.40;;;6.28;;
46551;SDS011;32278;51.810;4.712;2023-08-08T03:52:02;15.45;;;5.38;;
46551;SDS011;32278;51.810;4.712;2023-08-08T03:54:28;12.75;;;5.70;;
46551;SDS011;32278;51.810;4.712;2023-08-08T03:56:54;15.85;;;5.70;;
46551;SDS011;32278;51.810;4.712;2023-08-08T03:59:20;15.77;;;5.05;;
46551;SDS011;32278;51.810;4.712;2023-08-08T04:01:46;18.27;;;6.10;;
46551;SDS011;32278;51.810;4.712;2023-08-08T04:04:12;18.83;;;5.80;;
46551;SDS011;32278;51.810;4.712;2023-08-08T04:06:38;14.05;;;5.22;;
46551;SDS011;32278;51.810;4.712;2023-08-08T04:09:04;19.67;;;6.00;;
46551;SDS011;32278;51.810;4.712;2023-08-08T04:11:31;12.20;;;5.38;;
46551;SDS011;32278;51.810;4.712;2023-08-08T04:13:57;10.52;;;4.70;;
46551;SDS011;32278;51.810;4.712;2023-08-08T04:16:23;15.48;;;4.97;;
46551;SDS011;32278;51.810;4.712;2023-08-08T04:18:49;12.43;;;4.82;;
46551;SDS011;32278;51.810;4.712;2023-08-08T04:21:15;12.43;;;4.28;;
46551;SDS011;32278;51.810;4.712;2023-08-08T04:23:41;11.48;;;4.05;;
46551;SDS011;32278;51.810;4.712;2023-08-08T04:26:07;7.07;;;4.15;;
46551;SDS011;32278;51.810;4.712;2023-08-08T04:28:33;9.48;;;2.95;;
46551;SDS011;32278;51.810;4.712;2023-08-08T04:30:59;9.95;;;3.38;;
46551;SDS011;32278;51.810;4.712;2023-08-08T04:33:25;4.90;;;2.70;;
46551;SDS011;32278;51.810;4.712;2023-08-08T04:35:51;5.78;;;2.45;;
46551;SDS011;32278;51.810;4.712;2023-08-08T04:38:17;7.28;;;2.65;;
46551;SDS011;32278;51.810;4.712;2023-08-08T04:40:43;5.95;;;2.22;;
46551;SDS011;32278;51.810;4.712;2023-08-08T04:43:09;3.75;;;2.20;;
46551;SDS011;32278;51.810;4.712;2023-08-08T04:45:35;5.80;;;2.22;;
46551;SDS011;32278;51.810;4.712;2023-08-08T04:48:01;4.18;;;1.80;;
46551;SDS011;32278;51.810;4.712;2023-08-08T04:50:27;9.05;;;2.47;;
46551;SDS011;32278;51.810;4.712;2023-08-08T04:52:53;4.30;;;2.08;;
46551;SDS011;32278;51.810;4.712;2023-08-08T04:55:19;6.80;;;1.80;;
46551;SDS011;32278;51.810;4.712;2023-08-08T04:57:45;7.25;;;2.38;;
46551;SDS011;32278;51.810;4.712;2023-08-08T05:00:11;5.03;;;1.73;;
46551;SDS011;32278;51.810;4.712;2023-08-08T05:02:38;3.25;;;1.52;;
46551;SDS011;32278;51.810;4.712;2023-08-08T05:05:06;4.18;;;1.80;;
46551;SDS011;32278;51.810;4.712;2023-08-08T05:07:32;8.75;;;2.35;;
46551;SDS011;32278;51.810;4.712;2023-08-08T05:10:01;3.20;;;1.60;;
46551;SDS011;32278;51.810;4.712;2023-08-08T05:12:27;5.15;;;1.80;;
46551;SDS011;32278;51.810;4.712;2023-08-08T05:14:53;4.35;;;1.70;;
46551;SDS011;32278;51.810;4.712;2023-08-08T05:17:20;3.15;;;1.30;;
46551;SDS011;32278;51.810;4.712;2023-08-08T05:19:46;4.82;;;1.70;;
46551;SDS011;32278;51.810;4.712;2023-08-08T05:22:11;2.58;;;1.55;;
46551;SDS011;32278;51.810;4.712;2023-08-08T05:24:37;5.80;;;1.70;;
46551;SDS011;32278;51.810;4.712;2023-08-08T05:27:04;4.38;;;1.17;;
46551;SDS011;32278;51.810;4.712;2023-08-08T05:29:31;4.05;;;1.40;;
46551;SDS011;32278;51.810;4.712;2023-08-08T05:31:57;3.17;;;1.45;;
46551;SDS011;32278;51.810;4.712;2023-08-08T05:34:25;2.63;;;1.23;;
46551;SDS011;32278;51.810;4.712;2023-08-08T05:36:51;3.08;;;1.65;;
46551;SDS011;32278;51.810;4.712;2023-08-08T05:39:17;4.70;;;1.23;;
46551;SDS011;32278;51.810;4.712;2023-08-08T05:41:44;4.65;;;1.80;;
46551;SDS011;32278;51.810;4.712;2023-08-08T05:44:10;3.50;;;1.25;;
46551;SDS011;32278;51.810;4.712;2023-08-08T05:46:36;2.90;;;1.58;;
46551;SDS011;32278;51.810;4.712;2023-08-08T05:49:02;2.63;;;1.10;;
46551;SDS011;32278;51.810;4.712;2023-08-08T05:51:28;4.95;;;1.50;;
46551;SDS011;32278;51.810;4.712;2023-08-08T05:53:54;5.18;;;1.88;;
46551;SDS011;32278;51.810;4.712;2023-08-08T05:56:20;5.80;;;1.10;;
46551;SDS011;32278;51.810;4.712;2023-08-08T05:58:46;9.02;;;1.58;;
46551;SDS011;32278;51.810;4.712;2023-08-08T06:01:12;6.30;;;1.50;;
46551;SDS011;32278;51.810;4.712;2023-08-08T06:03:38;3.83;;;1.50;;
46551;SDS011;32278;51.810;4.712;2023-08-08T06:06:04;4.40;;;1.40;;
46551;SDS011;32278;51.810;4.712;2023-08-08T06:08:31;9.32;;;1.90;;
46551;SDS011;32278;51.810;4.712;2023-08-08T06:10:57;3.88;;;1.45;;
46551;SDS011;32278;51.810;4.712;2023-08-08T06:13:23;5.40;;;1.60;;
46551;SDS011;32278;51.810;4.712;2023-08-08T06:15:49;3.47;;;1.35;;
46551;SDS011;32278;51.810;4.712;2023-08-08T06:18:16;7.50;;;1.20;;
46551;SDS011;32278;51.810;4.712;2023-08-08T06:20:42;5.60;;;1.52;;
46551;SDS011;32278;51.810;4.712;2023-08-08T06:23:08;5.63;;;1.23;;
46551;SDS011;32278;51.810;4.712;2023-08-08T06:25:35;3.55;;;1.40;;
46551;SDS011;32278;51.810;4.712;2023-08-08T06:28:01;3.70;;;1.08;;
46551;SDS011;32278;51.810;4.712;2023-08-08T06:30:28;3.53;;;1.02;;
46551;SDS011;32278;51.810;4.712;2023-08-08T06:32:54;6.80;;;1.40;;
46551;SDS011;32278;51.810;4.712;2023-08-08T06:35:20;3.50;;;1.17;;
46551;SDS011;32278;51.810;4.712;2023-08-08T06:37:46;3.35;;;1.35;;
46551;SDS011;32278;51.810;4.712;2023-08-08T06:40:12;5.15;;;1.00;;
46551;SDS011;32278;51.810;4.712;2023-08-08T06:42:38;2.15;;;1.05;;
46551;SDS011;32278;51.810;4.712;2023-08-08T06:45:04;3.08;;;1.10;;
46551;SDS011;32278;51.810;4.712;2023-08-08T06:47:31;5.28;;;1.20;;
46551;SDS011;32278;51.810;4.712;2023-08-08T06:49:57;2.30;;;1.00;;
46551;SDS011;32278;51.810;4.712;2023-08-08T06:52:22;3.42;;;0.95;;
46551;SDS011;32278;51.810;4.712;2023-08-08T06:54:48;3.28;;;1.40;;
46551;SDS011;32278;51.810;4.712;2023-08-08T06:57:14;3.63;;;1.15;;
46551;SDS011;32278;51.810;4.712;2023-08-08T06:59:40;3.40;;;1.02;;
46551;SDS011;32278;51.810;4.712;2023-08-08T07:02:06;2.38;;;0.93;;
46551;SDS011;32278;51.810;4.712;2023-08-08T07:04:32;2.03;;;1.13;;
46551;SDS011;32278;51.810;4.712;2023-08-08T07:06:58;4.80;;;0.90;;
46551;SDS011;32278;51.810;4.712;2023-08-08T07:09:24;5.05;;;0.93;;
46551;SDS011;32278;51.810;4.712;2023-08-08T07:11:50;4.30;;;0.80;;
46551;SDS011;32278;51.810;4.712;2023-08-08T07:14:16;4.28;;;1.05;;
46551;SDS011;32278;51.810;4.712;2023-08-08T07:16:42;1.98;;;0.90;;
46551;SDS011;32278;51.810;4.712;2023-08-08T07:19:08;6.78;;;1.33;;
46551;SDS011;32278;51.810;4.712;2023-08-08T07:21:36;2.70;;;0.90;;
46551;SDS011;32278;51.810;4.712;2023-08-08T07:24:02;2.63;;;0.88;;
46551;SDS011;32278;51.810;4.712;2023-08-08T07:26:28;2.15;;;0.70;;
46551;SDS011;32278;51.810;4.712;2023-08-08T07:28:54;2.92;;;0.70;;
46551;SDS011;32278;51.810;4.712;2023-08-08T07:31:20;2.53;;;0.80;;
46551;SDS011;32278;51.810;4.712;2023-08-08T07:33:46;3.22;;;0.70;;
46551;SDS011;32278;51.810;4.712;2023-08-08T07:36:12;2.92;;;0.63;;
46551;SDS011;32278;51.810;4.712;2023-08-08T07:38:38;3.22;;;1.17;;
46551;SDS011;32278;51.810;4.712;2023-08-08T07:41:04;2.70;;;0.73;;
46551;SDS011;32278;51.810;4.712;2023-08-08T07:43:31;2.65;;;1.42;;
46551;SDS011;32278;51.810;4.712;2023-08-08T07:45:57;3.70;;;0.80;;
46551;SDS011;32278;51.810;4.712;2023-08-08T07:48:23;2.25;;;0.80;;
46551;SDS011;32278;51.810;4.712;2023-08-08T07:50:49;5.10;;;1.00;;
46551;SDS011;32278;51.810;4.712;2023-08-08T07:53:14;2.72;;;0.70;;
46551;SDS011;32278;51.810;4.712;2023-08-08T07:55:40;2.65;;;0.82;;
46551;SDS011;32278;51.810;4.712;2023-08-08T07:58:06;2.83;;;0.70;;
46551;SDS011;32278;51.810;4.712;2023-08-08T08:00:32;1.65;;;0.93;;
46551;SDS011;32278;51.810;4.712;2023-08-08T08:02:58;2.17;;;0.75;;
46551;SDS011;32278;51.810;4.712;2023-08-08T08:05:24;1.45;;;1.33;;
46551;SDS011;32278;51.810;4.712;2023-08-08T08:07:50;2.95;;;0.88;;
46551;SDS011;32278;51.810;4.712;2023-08-08T08:10:16;1.85;;;0.63;;
46551;SDS011;32278;51.810;4.712;2023-08-08T08:12:42;1.75;;;0.50;;
46551;SDS011;32278;51.810;4.712;2023-08-08T08:15:08;3.53;;;1.10;;
46551;SDS011;32278;51.810;4.712;2023-08-08T08:17:35;2.47;;;0.88;;
46551;SDS011;32278;51.810;4.712;2023-08-08T08:20:01;3.60;;;0.75;;
46551;SDS011;32278;51.810;4.712;2023-08-08T08:22:30;3.22;;;0.90;;
46551;SDS011;32278;51.810;4.712;2023-08-08T08:24:56;1.88;;;0.82;;
46551;SDS011;32278;51.810;4.712;2023-08-08T08:27:22;1.33;;;0.70;;
46551;SDS011;32278;51.810;4.712;2023-08-08T08:29:48;1.55;;;0.70;;
46551;SDS011;32278;51.810;4.712;2023-08-08T08:32:14;0.60;;;0.60;;
46551;SDS011;32278;51.810;4.712;2023-08-08T08:34:40;5.43;;;0.75;;
46551;SDS011;32278;51.810;4.712;2023-08-08T08:37:06;0.70;;;0.70;;
46551;SDS011;32278;51.810;4.712;2023-08-08T08:39:32;1.88;;;0.98;;
46551;SDS011;32278;51.810;4.712;2023-08-08T08:41:59;3.42;;;0.85;;
46551;SDS011;32278;51.810;4.712;2023-08-08T08:44:28;1.75;;;0.80;;
46551;SDS011;32278;51.810;4.712;2023-08-08T08:46:55;3.67;;;0.80;;
46551;SDS011;32278;51.810;4.712;2023-08-08T08:49:23;2.67;;;0.93;;
46551;SDS011;32278;51.810;4.712;2023-08-08T08:51:50;1.77;;;1.00;;
46551;SDS011;32278;51.810;4.712;2023-08-08T08:54:16;3.53;;;0.80;;
46551;SDS011;32278;51.810;4.712;2023-08-08T08:56:42;3.42;;;1.25;;
46551;SDS011;32278;51.810;4.712;2023-08-08T08:59:08;6.10;;;1.20;;
46551;SDS011;32278;51.810;4.712;2023-08-08T09:01:34;1.48;;;1.00;;
46551;SDS011;32278;51.810;4.712;2023-08-08T09:04:01;3.05;;;0.70;;
46551;SDS011;32278;51.810;4.712;2023-08-08T09:06:27;2.50;;;0.80;;
46551;SDS011;32278;51.810;4.712;2023-08-08T09:08:54;1.98;;;0.63;;
46551;SDS011;32278;51.810;4.712;2023-08-08T09:11:20;1.75;;;0.82;;
46551;SDS011;32278;51.810;4.712;2023-08-08T09:13:46;1.27;;;0.77;;
46551;SDS011;32278;51.810;4.712;2023-08-08T09:16:12;1.70;;;0.98;;
46551;SDS011;32278;51.810;4.712;2023-08-08T09:18:39;4.03;;;0.80;;
46551;SDS011;32278;51.810;4.712;2023-08-08T09:21:07;2.05;;;0.90;;
46551;SDS011;32278;51.810;4.712;2023-08-08T09:23:34;2.38;;;1.13;;
46551;SDS011;32278;51.810;4.712;2023-08-08T09:26:00;2.00;;;0.80;;
46551;SDS011;32278;51.810;4.712;2023-08-08T09:28:26;3.08;;;1.10;;
46551;SDS011;32278;51.810;4.712;2023-08-08T09:30:52;2.58;;;1.08;;
46551;SDS011;32278;51.810;4.712;2023-08-08T09:33:18;2.40;;;0.90;;
46551;SDS011;32278;51.810;4.712;2023-08-08T09:35:44;2.25;;;0.90;;
46551;SDS011;32278;51.810;4.712;2023-08-08T09:38:10;1.45;;;1.15;;
46551;SDS011;32278;51.810;4.712;2023-08-08T09:40:36;1.17;;;0.70;;
46551;SDS011;32278;51.810;4.712;2023-08-08T09:43:02;4.35;;;0.70;;
46551;SDS011;32278;51.810;4.712;2023-08-08T09:45:38;4.70;;;0.80;;
46551;SDS011;32278;51.810;4.712;2023-08-08T09:48:07;4.00;;;0.90;;
46551;SDS011;32278;51.810;4.712;2023-08-08T09:50:33;1.67;;;0.88;;
46551;SDS011;32278;51.810;4.712;2023-08-08T09:52:59;2.42;;;0.95;;
46551;SDS011;32278;51.810;4.712;2023-08-08T09:55:26;2.60;;;0.90;;
46551;SDS011;32278;51.810;4.712;2023-08-08T09:57:52;4.05;;;0.90;;
46551;SDS011;32278;51.810;4.712;2023-08-08T10:00:19;2.15;;;1.02;;
46551;SDS011;32278;51.810;4.712;2023-08-08T10:02:46;5.97;;;1.00;;
46551;SDS011;32278;51.810;4.712;2023-08-08T10:05:13;2.38;;;1.00;;
46551;SDS011;32278;51.810;4.712;2023-08-08T10:07:40;1.35;;;0.80;;
46551;SDS011;32278;51.810;4.712;2023-08-08T10:10:07;1.65;;;0.73;;
46551;SDS011;32278;51.810;4.712;2023-08-08T10:12:36;2.03;;;1.00;;
46551;SDS011;32278;51.810;4.712;2023-08-08T10:15:02;3.17;;;0.77;;
46551;SDS011;32278;51.810;4.712;2023-08-08T10:17:28;3.58;;;0.68;;
46551;SDS011;32278;51.810;4.712;2023-08-08T10:20:00;0.85;;;0.70;;
46551;SDS011;32278;51.810;4.712;2023-08-08T10:22:34;1.98;;;0.65;;
46551;SDS011;32278;51.810;4.712;2023-08-08T10:25:00;3.25;;;1.20;;
46551;SDS011;32278;51.810;4.712;2023-08-08T10:27:32;3.50;;;0.68;;
46551;SDS011;32278;51.810;4.712;2023-08-08T10:30:08;6.85;;;0.95;;
46551;SDS011;32278;51.810;4.712;2023-08-08T10:32:45;2.80;;;0.82;;
46551;SDS011;32278;51.810;4.712;2023-08-08T10:35:11;3.90;;;0.70;;
46551;SDS011;32278;51.810;4.712;2023-08-08T10:37:38;1.15;;;0.77;;
46551;SDS011;32278;51.810;4.712;2023-08-08T10:40:04;2.08;;;0.68;;
46551;SDS011;32278;51.810;4.712;2023-08-08T10:42:32;1.95;;;0.70;;
46551;SDS011;32278;51.810;4.712;2023-08-08T10:44:59;2.47;;;0.70;;
46551;SDS011;32278;51.810;4.712;2023-08-08T10:47:32;1.55;;;0.60;;
46551;SDS011;32278;51.810;4.712;2023-08-08T10:50:06;0.85;;;0.50;;
46551;SDS011;32278;51.810;4.712;2023-08-08T10:55:23;1.80;;;0.55;;
46551;SDS011;32278;51.810;4.712;2023-08-08T11:00:29;1.25;;;0.70;;
46551;SDS011;32278;51.810;4.712;2023-08-08T11:02:56;2.20;;;0.82;;
46551;SDS011;32278;51.810;4.712;2023-08-08T11:05:23;6.07;;;0.85;;
46551;SDS011;32278;51.810;4.712;2023-08-08T11:07:49;1.88;;;0.70;;
46551;SDS011;32278;51.810;4.712;2023-08-08T11:10:15;1.05;;;0.82;;
46551;SDS011;32278;51.810;4.712;2023-08-08T11:12:41;1.50;;;0.73;;
46551;SDS011;32278;51.810;4.712;2023-08-08T11:15:07;2.55;;;0.93;;
46551;SDS011;32278;51.810;4.712;2023-08-08T11:17:34;1.00;;;1.00;;
46551;SDS011;32278;51.810;4.712;2023-08-08T11:20:00;2.50;;;0.90;;
46551;SDS011;32278;51.810;4.712;2023-08-08T11:22:26;1.45;;;0.60;;
46551;SDS011;32278;51.810;4.712;2023-08-08T11:24:52;2.97;;;0.57;;
46551;SDS011;32278;51.810;4.712;2023-08-08T11:27:23;1.90;;;0.70;;
46551;SDS011;32278;51.810;4.712;2023-08-08T11:29:50;0.93;;;0.70;;
46551;SDS011;32278;51.810;4.712;2023-08-08T11:32:16;2.28;;;0.95;;
46551;SDS011;32278;51.810;4.712;2023-08-08T11:34:42;5.43;;;0.80;;
46551;SDS011;32278;51.810;4.712;2023-08-08T11:37:08;2.90;;;1.13;;
46551;SDS011;32278;51.810;4.712;2023-08-08T11:39:35;2.63;;;1.10;;
46551;SDS011;32278;51.810;4.712;2023-08-08T11:42:01;1.90;;;1.02;;
46551;SDS011;32278;51.810;4.712;2023-08-08T11:44:27;2.30;;;1.33;;
46551;SDS011;32278;51.810;4.712;2023-08-08T11:46:53;3.15;;;0.73;;
46551;SDS011;32278;51.810;4.712;2023-08-08T11:49:19;1.13;;;0.80;;
46551;SDS011;32278;51.810;4.712;2023-08-08T11:51:46;2.63;;;0.90;;
46551;SDS011;32278;51.810;4.712;2023-08-08T11:54:12;3.03;;;1.00;;
46551;SDS011;32278;51.810;4.712;2023-08-08T11:56:39;1.50;;;0.82;;
46551;SDS011;32278;51.810;4.712;2023-08-08T11:59:05;1.50;;;1.17;;
46551;SDS011;32278;51.810;4.712;2023-08-08T12:01:32;2.60;;;0.90;;
46551;SDS011;32278;51.810;4.712;2023-08-08T12:04:06;2.55;;;1.10;;
46551;SDS011;32278;51.810;4.712;2023-08-08T12:06:32;4.55;;;1.23;;
46551;SDS011;32278;51.810;4.712;2023-08-08T12:09:00;3.85;;;1.02;;
46551;SDS011;32278;51.810;4.712;2023-08-08T12:11:27;3.03;;;1.25;;
46551;SDS011;32278;51.810;4.712;2023-08-08T12:13:57;3.78;;;1.10;;
46551;SDS011;32278;51.810;4.712;2023-08-08T12:16:27;1.90;;;0.93;;
46551;SDS011;32278;51.810;4.712;2023-08-08T12:18:53;1.10;;;0.70;;
46551;SDS011;32278;51.810;4.712;2023-08-08T12:21:19;1.05;;;0.80;;
46551;SDS011;32278;51.810;4.712;2023-08-08T12:23:45;3.35;;;0.98;;
46551;SDS011;32278;51.810;4.712;2023-08-08T12:26:11;1.45;;;1.02;;
46551;SDS011;32278;51.810;4.712;2023-08-08T12:28:37;5.78;;;1.17;;
46551;SDS011;32278;51.810;4.712;2023-08-08T12:31:03;2.28;;;0.93;;
46551;SDS011;32278;51.810;4.712;2023-08-08T12:33:29;2.28;;;0.95;;
46551;SDS011;32278;51.810;4.712;2023-08-08T12:35:55;1.77;;;1.13;;
46551;SDS011;32278;51.810;4.712;2023-08-08T12:38:21;2.05;;;0.90;;
46551;SDS011;32278;51.810;4.712;2023-08-08T12:40:47;5.43;;;1.27;;
46551;SDS011;32278;51.810;4.712;2023-08-08T12:43:13;2.25;;;0.75;;
46551;SDS011;32278;51.810;4.712;2023-08-08T12:45:42;1.98;;;0.65;;
46551;SDS011;32278;51.810;4.712;2023-08-08T12:48:09;1.83;;;1.13;;
46551;SDS011;32278;51.810;4.712;2023-08-08T12:50:35;2.03;;;1.10;;
46551;SDS011;32278;51.810;4.712;2023-08-08T12:53:02;0.77;;;0.75;;
46551;SDS011;32278;51.810;4.712;2023-08-08T12:55:29;1.67;;;1.02;;
46551;SDS011;32278;51.810;4.712;2023-08-08T12:57:55;1.90;;;1.05;;
46551;SDS011;32278;51.810;4.712;2023-08-08T13:00:21;6.00;;;1.10;;
46551;SDS011;32278;51.810;4.712;2023-08-08T13:02:47;2.30;;;1.10;;
46551;SDS011;32278;51.810;4.712;2023-08-08T13:05:13;3.03;;;1.38;;
46551;SDS011;32278;51.810;4.712;2023-08-08T13:07:39;8.23;;;1.25;;
46551;SDS011;32278;51.810;4.712;2023-08-08T13:10:05;2.05;;;0.95;;
46551;SDS011;32278;51.810;4.712;2023-08-08T13:12:31;2.10;;;1.08;;
46551;SDS011;32278;51.810;4.712;2023-08-08T13:14:57;3.67;;;1.00;;
46551;SDS011;32278;51.810;4.712;2023-08-08T13:17:23;6.30;;;1.50;;
46551;SDS011;32278;51.810;4.712;2023-08-08T13:19:49;2.70;;;1.10;;
46551;SDS011;32278;51.810;4.712;2023-08-08T13:22:16;5.38;;;1.00;;
46551;SDS011;32278;51.810;4.712;2023-08-08T13:24:42;3.45;;;0.80;;
46551;SDS011;32278;51.810;4.712;2023-08-08T13:27:07;5.80;;;1.52;;
46551;SDS011;32278;51.810;4.712;2023-08-08T13:29:33;4.03;;;1.15;;
46551;SDS011;32278;51.810;4.712;2023-08-08T13:31:59;3.75;;;1.20;;
46551;SDS011;32278;51.810;4.712;2023-08-08T13:34:25;2.63;;;1.10;;
46551;SDS011;32278;51.810;4.712;2023-08-08T13:36:51;2.00;;;1.02;;
46551;SDS011;32278;51.810;4.712;2023-08-08T13:39:17;1.13;;;0.70;;
46551;SDS011;32278;51.810;4.712;2023-08-08T13:41:43;4.75;;;0.95;;
46551;SDS011;32278;51.810;4.712;2023-08-08T13:44:09;2.70;;;0.85;;
46551;SDS011;32278;51.810;4.712;2023-08-08T13:46:35;4.22;;;0.90;;
46551;SDS011;32278;51.810;4.712;2023-08-08T13:49:01;1.48;;;0.77;;
46551;SDS011;32278;51.810;4.712;2023-08-08T13:51:27;2.08;;;1.00;;
46551;SDS011;32278;51.810;4.712;2023-08-08T13:53:53;3.92;;;1.10;;
46551;SDS011;32278;51.810;4.712;2023-08-08T13:56:19;3.35;;;1.40;;
46551;SDS011;32278;51.810;4.712;2023-08-08T13:58:45;2.55;;;0.93;;
46551;SDS011;32278;51.810;4.712;2023-08-08T14:01:11;4.43;;;0.98;;
46551;SDS011;32278;51.810;4.712;2023-08-08T14:03:37;1.42;;;1.05;;
46551;SDS011;32278;51.810;4.712;2023-08-08T14:06:03;1.65;;;0.95;;
46551;SDS011;32278;51.810;4.712;2023-08-08T14:08:31;1.10;;;0.85;;
46551;SDS011;32278;51.810;4.712;2023-08-08T14:10:57;3.63;;;1.10;;
46551;SDS011;32278;51.810;4.712;2023-08-08T14:13:23;4.15;;;1.30;;
46551;SDS011;32278;51.810;4.712;2023-08-08T14:15:49;1.48;;;0.98;;
46551;SDS011;32278;51.810;4.712;2023-08-08T14:18:16;6.68;;;1.58;;
46551;SDS011;32278;51.810;4.712;2023-08-08T14:20:42;0.93;;;0.80;;
46551;SDS011;32278;51.810;4.712;2023-08-08T14:23:08;1.17;;;1.00;;
46551;SDS011;32278;51.810;4.712;2023-08-08T14:25:34;2.53;;;1.08;;
46551;SDS011;32278;51.810;4.712;2023-08-08T14:28:00;3.53;;;1.17;;
46551;SDS011;32278;51.810;4.712;2023-08-08T14:30:27;1.67;;;1.10;;
46551;SDS011;32278;51.810;4.712;2023-08-08T14:32:54;4.05;;;0.98;;
46551;SDS011;32278;51.810;4.712;2023-08-08T14:35:20;2.45;;;1.20;;
46551;SDS011;32278;51.810;4.712;2023-08-08T14:37:46;5.53;;;1.10;;
46551;SDS011;32278;51.810;4.712;2023-08-08T14:40:12;5.00;;;1.25;;
46551;SDS011;32278;51.810;4.712;2023-08-08T14:42:38;3.05;;;1.20;;
46551;SDS011;32278;51.810;4.712;2023-08-08T14:45:04;3.60;;;1.08;;
46551;SDS011;32278;51.810;4.712;2023-08-08T14:47:30;1.40;;;1.10;;
46551;SDS011;32278;51.810;4.712;2023-08-08T14:49:56;3.47;;;1.00;;